Time;durP1;ratioP1;P1;durP2;ratioP2;P2;SDS_P1;SDS_P2;PMS_P1;PMS_P2;Temp;Humidity;BMP_temperature;BMP_pressure;BME280_temperature;BME280_humidity;BME280_pressure;Samples;Min_cycle;Max_cycle;Signal;HPM_P1;HPM_P2
2022/12/21 00:01:26;;;;;;;38.80;15.45;;;;;;;0.03;100.00;99408.19;4469660;32;20676;-72
2022/12/21 00:03:59;;;;;;;35.17;15.57;;;;;;;-0.11;100.00;99409.53;4469546;32;20637;-72
2022/12/21 00:06:27;;;;;;;25.12;11.73;;;;;;;-0.15;100.00;99405.38;4469299;32;20119;-72
2022/12/21 00:08:56;;;;;;;36.67;14.95;;;;;;;-0.08;100.00;99403.44;4474388;32;20142;-72
2022/12/21 00:11:24;;;;;;;37.13;13.73;;;;;;;0.01;100.00;99404.84;4484756;31;20104;-72
2022/12/21 00:13:52;;;;;;;34.05;13.48;;;;;;;0.08;100.00;99414.87;4485012;31;20497;-72
2022/12/21 00:16:22;;;;;;;39.83;14.57;;;;;;;0.04;100.00;99397.84;4484512;31;20152;-72
2022/12/21 00:18:49;;;;;;;36.72;15.13;;;;;;;0.09;100.00;99395.94;4484946;31;20084;-72
2022/12/21 00:21:27;;;;;;;38.58;14.40;;;;;;;0.10;100.00;99396.78;4477816;31;20115;-72
2022/12/21 00:23:59;;;;;;;36.28;13.35;;;;;;;0.06;100.00;99396.06;4469045;32;20172;-72
2022/12/21 00:26:34;;;;;;;39.50;14.65;;;;;;;-0.03;100.00;99407.53;4469200;32;20152;-72
2022/12/21 00:29:03;;;;;;;39.95;12.60;;;;;;;-0.08;100.00;99400.84;4468907;32;20112;-72
2022/12/21 00:31:34;;;;;;;40.12;17.90;;;;;;;0.00;100.00;99401.44;4469084;32;20084;-72
2022/12/21 00:34:02;;;;;;;40.65;15.70;;;;;;;-0.17;100.00;99396.88;4468961;32;20135;-72
2022/12/21 00:36:31;;;;;;;35.38;13.80;;;;;;;-0.23;100.00;99392.78;4468984;32;20093;-72
2022/12/21 00:38:59;;;;;;;32.45;11.48;;;;;;;-0.23;100.00;99387.62;4468785;32;20112;-72
2022/12/21 00:41:27;;;;;;;41.42;15.73;;;;;;;-0.21;100.00;99391.00;4468941;32;20194;-72
2022/12/21 00:43:54;;;;;;;36.92;15.07;;;;;;;-0.27;100.00;99393.78;4468922;32;20435;-72
2022/12/21 00:46:25;;;;;;;37.92;14.68;;;;;;;-0.14;100.00;99394.19;4468594;32;20097;-72
2022/12/21 00:48:55;;;;;;;35.42;13.88;;;;;;;-0.23;100.00;99391.94;4468798;32;20164;-72
2022/12/21 00:51:23;;;;;;;25.20;12.30;;;;;;;-0.09;100.00;99396.59;4468928;32;20115;-72
2022/12/21 00:53:52;;;;;;;38.58;14.38;;;;;;;-0.16;100.00;99384.84;4468976;32;20152;-72
2022/12/21 00:56:20;;;;;;;32.70;12.93;;;;;;;-0.03;100.00;99386.06;4469036;32;20097;-72
2022/12/21 00:58:48;;;;;;;31.98;13.68;;;;;;;0.02;100.00;99391.91;4468829;32;20152;-72
2022/12/21 01:01:18;;;;;;;40.38;14.05;;;;;;;-0.02;100.00;99392.91;4469035;32;20124;-72
2022/12/21 01:03:46;;;;;;;31.30;13.25;;;;;;;0.02;100.00;99386.75;4468601;32;20089;-72
2022/12/21 01:06:15;;;;;;;34.33;13.73;;;;;;;-0.16;100.00;99392.56;4468646;32;20161;-72
2022/12/21 01:08:42;;;;;;;24.73;11.77;;;;;;;-0.12;100.00;99399.28;4472115;32;20435;-72
2022/12/21 01:11:11;;;;;;;35.08;12.73;;;;;;;-0.06;100.00;99394.75;4484252;32;20175;-72
2022/12/21 01:13:39;;;;;;;36.72;13.23;;;;;;;0.00;100.00;99391.13;4484071;31;20144;-72
2022/12/21 01:16:18;;;;;;;30.05;12.95;;;;;;;-0.04;100.00;99385.22;4483847;31;20084;-72
2022/12/21 01:18:45;;;;;;;38.60;15.90;;;;;;;-0.04;100.00;99384.41;4484121;31;20079;-72
2022/12/21 01:21:18;;;;;;;34.83;14.40;;;;;;;-0.02;100.00;99385.19;4477323;31;20089;-72
2022/12/21 01:23:46;;;;;;;30.33;11.77;;;;;;;0.03;100.00;99382.44;4468286;32;20434;-72
2022/12/21 01:26:13;;;;;;;26.65;11.48;;;;;;;0.17;100.00;99373.31;4468219;32;20119;-72
2022/12/21 01:28:41;;;;;;;34.17;13.62;;;;;;;0.15;100.00;99372.53;4468457;32;20104;-72
2022/12/21 01:31:08;;;;;;;37.17;15.00;;;;;;;0.04;100.00;99366.94;4468376;32;20586;-72
2022/12/21 01:33:36;;;;;;;43.65;14.77;;;;;;;0.02;100.00;99360.16;4468230;32;20093;-72
2022/12/21 01:36:07;;;;;;;29.40;11.88;;;;;;;-0.16;100.00;99361.66;4468261;32;20153;-72
2022/12/21 01:38:35;;;;;;;33.58;12.55;;;;;;;-0.05;100.00;99355.22;4467921;32;20125;-72
2022/12/21 01:41:02;;;;;;;30.52;13.02;;;;;;;0.03;100.00;99354.97;4468068;32;20092;-72
2022/12/21 01:43:50;;;;;;;38.15;15.38;;;;;;;-0.13;100.00;99344.38;4469986;32;20148;-72
2022/12/21 01:46:20;;;;;;;33.85;12.00;;;;;;;-0.20;100.00;99335.19;4470148;32;20112;-72
2022/12/21 01:49:03;;;;;;;33.88;13.40;;;;;;;0.03;100.00;99341.22;4470165;32;20083;-72
2022/12/21 01:51:33;;;;;;;33.45;12.52;;;;;;;-0.05;100.00;99342.34;4469148;32;20076;-72
2022/12/21 01:54:05;;;;;;;36.10;14.77;;;;;;;-0.10;100.00;99333.13;4468835;32;20117;-72
2022/12/21 01:56:34;;;;;;;32.85;12.40;;;;;;;0.09;100.00;99331.56;4470255;32;20175;-72
2022/12/21 01:59:10;;;;;;;37.13;14.43;;;;;;;0.02;100.00;99330.09;4470444;32;20088;-72
2022/12/21 02:01:38;;;;;;;36.17;13.65;;;;;;;-0.26;100.00;99327.66;4470463;32;20136;-72
2022/12/21 02:04:06;;;;;;;29.70;12.52;;;;;;;-0.24;100.00;99326.72;4468908;32;20173;-72
2022/12/21 02:06:39;;;;;;;25.10;11.18;;;;;;;-0.13;100.00;99308.31;4468779;32;20093;-72
2022/12/21 02:09:07;;;;;;;32.77;11.20;;;;;;;-0.07;100.00;99307.25;4475248;32;20104;-72
2022/12/21 02:11:34;;;;;;;32.70;12.63;;;;;;;-0.03;100.00;99319.09;4484375;32;20106;-72
2022/12/21 02:14:02;;;;;;;29.35;11.98;;;;;;;0.05;100.00;99313.69;4486001;31;20539;-72
2022/12/21 02:16:47;;;;;;;30.42;11.75;;;;;;;0.05;100.00;99311.94;4485614;31;20097;-72
2022/12/21 02:19:52;;;;;;;34.67;13.07;;;;;;;-0.20;100.00;99318.00;4485723;31;20171;-72
2022/12/21 02:22:37;;;;;;;31.40;12.00;;;;;;;-0.10;100.00;99303.03;4471783;31;20112;-72
2022/12/21 02:25:32;;;;;;;32.90;12.07;;;;;;;-0.27;100.00;99298.53;4470254;32;20136;-72
2022/12/21 02:28:37;;;;;;;30.65;12.45;;;;;;;-0.11;100.00;99311.66;4469907;32;20168;-72
2022/12/21 02:31:37;;;;;;;41.17;13.10;;;;;;;-0.17;100.00;99295.59;4421108;32;20201;-72
2022/12/21 02:34:13;;;;;;;40.60;13.70;;;;;;;-0.06;100.00;99308.91;4421489;32;20098;-72
2022/12/21 02:36:55;;;;;;;32.78;11.63;;;;;;;0.01;100.00;99299.25;4421513;32;20492;-72
2022/12/21 02:40:00;;;;;;;26.30;9.38;;;;;;;-0.01;100.00;99281.28;4408587;32;20535;-72
2022/12/21 02:45:47;;;;;;;31.15;13.77;;;;;;;0.03;100.00;99275.13;4390368;32;20424;-72
2022/12/21 02:48:23;;;;;;;38.00;12.73;;;;;;;0.04;100.00;99265.62;4390667;32;20520;-72
2022/12/21 02:50:54;;;;;;;35.38;11.73;;;;;;;-0.03;100.00;99267.59;4390917;32;20086;-72
2022/12/21 02:53:26;;;;;;;41.35;12.57;;;;;;;-0.12;100.00;99275.66;4390547;32;20202;-72
2022/12/21 02:55:53;;;;;;;32.53;12.73;;;;;;;0.03;100.00;99267.38;4390572;32;20201;-72
2022/12/21 02:58:22;;;;;;;37.05;13.90;;;;;;;-0.08;100.00;99256.63;4390554;32;20185;-72
2022/12/21 03:00:58;;;;;;;41.08;13.38;;;;;;;-0.19;100.00;99252.72;4390650;32;20233;-72
2022/12/21 03:03:50;;;;;;;35.17;14.05;;;;;;;-0.15;100.00;99262.91;4390929;32;20150;-72
2022/12/21 03:06:37;;;;;;;34.05;12.90;;;;;;;-0.06;100.00;99258.25;4420665;32;20137;-72
2022/12/21 03:09:14;;;;;;;32.33;13.00;;;;;;;-0.19;100.00;99249.31;4408195;32;20109;-72
2022/12/21 03:12:02;;;;;;;25.50;11.65;;;;;;;-0.09;100.00;99249.78;4421065;32;20106;-72
2022/12/21 03:14:57;;;;;;;32.50;11.90;;;;;;;-0.17;100.00;99247.50;4408384;32;20144;-72
2022/12/21 03:17:55;;;;;;;36.33;12.88;;;;;;;-0.22;100.00;99236.56;4408085;32;20161;-72
2022/12/21 03:20:55;;;;;;;35.28;14.10;;;;;;;-0.11;100.00;99243.88;4475097;32;20135;-72
2022/12/21 03:23:44;;;;;;;36.70;14.07;;;;;;;-0.07;100.00;99235.97;4454657;32;20100;-72
2022/12/21 03:26:20;;;;;;;32.30;13.35;;;;;;;-0.17;100.00;99233.81;4468419;32;20462;-72
2022/12/21 03:28:49;;;;;;;35.80;14.23;;;;;;;-0.09;100.00;99235.19;4469560;32;20069;-72
2022/12/21 03:31:20;;;;;;;35.70;13.55;;;;;;;0.05;100.00;99232.09;4469590;32;20148;-72
2022/12/21 03:33:54;;;;;;;32.15;12.57;;;;;;;-0.01;100.00;99235.72;4468332;32;20492;-72
2022/12/21 03:36:26;;;;;;;34.40;14.13;;;;;;;0.00;100.00;99239.16;4468218;32;20092;-72
2022/12/21 03:39:22;;;;;;;36.10;13.20;;;;;;;0.04;100.00;99238.13;4468194;32;20148;-72
2022/12/21 03:41:54;;;;;;;27.10;11.80;;;;;;;-0.14;100.00;99231.13;4405054;32;20486;-72
2022/12/21 03:44:27;;;;;;;34.08;11.95;;;;;;;-0.13;100.00;99237.97;4405423;32;20609;-72
2022/12/21 03:46:58;;;;;;;28.48;11.65;;;;;;;-0.07;100.00;99235.16;4405149;32;20114;-72
2022/12/21 03:49:33;;;;;;;27.50;11.30;;;;;;;-0.02;100.00;99230.66;4392854;32;20550;-72
2022/12/21 03:52:16;;;;;;;30.45;11.75;;;;;;;-0.02;100.00;99238.37;4405398;32;20202;-72
2022/12/21 03:55:08;;;;;;;34.95;12.98;;;;;;;0.01;100.00;99233.09;4392804;32;20188;-72
2022/12/21 03:57:36;;;;;;;39.03;13.48;;;;;;;-0.03;100.00;99241.84;4392782;32;20287;-72
2022/12/21 04:00:04;;;;;;;32.70;12.75;;;;;;;0.06;100.00;99258.69;4392719;32;20502;-72
2022/12/21 04:02:39;;;;;;;30.05;12.68;;;;;;;-0.01;100.00;99252.94;4405500;32;20165;-72
2022/12/21 04:05:38;;;;;;;43.90;15.80;;;;;;;-0.17;100.00;99250.09;4391917;32;20170;-72
2022/12/21 04:08:05;;;;;;;34.92;13.82;;;;;;;-0.06;100.00;99249.69;4315793;33;20114;-72
2022/12/21 04:10:33;;;;;;;30.40;13.85;;;;;;;-0.07;100.00;99245.44;4315893;33;20600;-72
2022/12/21 04:13:00;;;;;;;35.50;12.50;;;;;;;-0.10;100.00;99240.41;4315827;33;20179;-72
2022/12/21 04:18:14;;;;;;;32.67;12.70;;;;;;;-0.17;100.00;99233.81;4350109;32;20512;-72
2022/12/21 04:20:41;;;;;;;33.33;11.70;;;;;;;-0.19;100.00;99234.69;4396220;32;20117;-72
2022/12/21 04:28:41;;;;;;;24.73;10.65;;;;;;;-0.18;100.00;99220.09;4420310;32;20109;-72
2022/12/21 04:31:18;;;;;;;28.65;10.52;;;;;;;-0.17;100.00;99214.03;4420436;32;20589;-72
2022/12/21 04:33:45;;;;;;;25.10;10.57;;;;;;;-0.28;100.00;99204.16;4420171;32;20603;-72
2022/12/21 04:38:58;;;;;;;31.85;11.45;;;;;;;-0.16;100.00;99212.31;4420148;32;20701;-72
2022/12/21 04:41:25;;;;;;;34.33;12.73;;;;;;;-0.33;100.00;99212.94;4420155;32;20098;-72
2022/12/21 04:43:52;;;;;;;23.33;10.07;;;;;;;-0.38;100.00;99215.69;4430742;32;20574;-72
2022/12/21 04:46:19;;;;;;;29.33;11.85;;;;;;;-0.38;100.00;99216.53;4468841;32;20531;-72
2022/12/21 04:48:47;;;;;;;26.48;11.15;;;;;;;-0.39;100.00;99219.19;4468894;32;20092;-72
2022/12/21 04:51:16;;;;;;;28.67;11.25;;;;;;;-0.31;100.00;99219.72;4468659;32;20434;-72
2022/12/21 04:53:44;;;;;;;24.05;9.98;;;;;;;-0.29;100.00;99217.09;4469008;32;20119;-72
2022/12/21 04:56:11;;;;;;;32.00;10.52;;;;;;;-0.38;100.00;99221.69;4468799;32;20119;-72
2022/12/21 04:58:39;;;;;;;24.58;9.85;;;;;;;-0.39;100.00;99203.72;4468598;32;20502;-72
2022/12/21 05:01:11;;;;;;;21.85;8.95;;;;;;;-0.26;100.00;99204.94;4468706;32;20156;-72
2022/12/21 05:03:39;;;;;;;24.08;9.18;;;;;;;-0.24;100.00;99222.91;4468982;32;20084;-72
2022/12/21 05:06:08;;;;;;;28.00;11.77;;;;;;;-0.19;100.00;99216.66;4468688;32;20133;-72
2022/12/21 05:08:36;;;;;;;26.90;9.18;;;;;;;-0.15;100.00;99212.25;4471483;32;20153;-72
2022/12/21 05:11:17;;;;;;;26.20;10.95;;;;;;;-0.27;100.00;99207.56;4483862;31;20526;-72
2022/12/21 05:13:45;;;;;;;25.17;10.05;;;;;;;-0.21;100.00;99215.91;4483930;31;20232;-72
2022/12/21 05:16:18;;;;;;;27.40;10.18;;;;;;;-0.22;100.00;99211.62;4482489;31;20171;-72
2022/12/21 05:18:48;;;;;;;29.30;10.70;;;;;;;-0.30;100.00;99211.09;4485057;31;20093;-72
2022/12/21 05:21:16;;;;;;;24.92;9.60;;;;;;;-0.33;100.00;99198.34;4478559;32;20195;-72
2022/12/21 05:23:43;;;;;;;18.92;9.45;;;;;;;-0.28;100.00;99196.44;4469458;32;20112;-72
2022/12/21 05:26:11;;;;;;;28.27;10.30;;;;;;;-0.25;100.00;99201.47;4469533;32;20088;-72
2022/12/21 05:28:43;;;;;;;34.00;10.55;;;;;;;-0.22;100.00;99201.34;4469891;32;20415;-72
2022/12/21 05:31:11;;;;;;;30.85;12.15;;;;;;;-0.32;100.00;99179.41;4469240;32;20080;-72
2022/12/21 05:33:38;;;;;;;36.83;12.73;;;;;;;-0.32;100.00;99194.03;4470006;32;20108;-72
2022/12/21 05:36:08;;;;;;;41.58;15.10;;;;;;;-0.21;100.00;99190.16;4470019;32;20122;-72
2022/12/21 05:38:36;;;;;;;29.02;10.55;;;;;;;-0.23;100.00;99203.97;4470116;32;20149;-72
2022/12/21 05:41:03;;;;;;;24.95;10.43;;;;;;;-0.23;100.00;99194.53;4474211;32;20159;-72
2022/12/21 05:43:31;;;;;;;23.08;9.68;;;;;;;-0.26;100.00;99194.66;4485623;31;20434;-72
2022/12/21 05:46:03;;;;;;;28.08;11.15;;;;;;;-0.19;100.00;99195.25;4485170;31;20160;-72
2022/12/21 05:48:30;;;;;;;32.72;10.85;;;;;;;-0.28;100.00;99193.84;4485665;31;20133;-72
2022/12/21 05:50:58;;;;;;;26.75;10.13;;;;;;;-0.23;100.00;99194.53;4485610;31;20491;-73
2022/12/21 05:53:25;;;;;;;27.42;10.43;;;;;;;-0.23;100.00;99191.97;4485919;31;20470;-72
2022/12/21 05:55:52;;;;;;;30.92;12.02;;;;;;;-0.41;100.00;99174.62;4483619;31;20167;-72
2022/12/21 05:58:19;;;;;;;26.00;11.77;;;;;;;-0.37;100.00;99183.91;4475074;31;20120;-72
2022/12/21 06:00:47;;;;;;;32.42;12.13;;;;;;;-0.40;100.00;99173.72;4482156;32;20127;-72
2022/12/21 06:03:15;;;;;;;36.42;12.02;;;;;;;-0.44;100.00;99175.59;4482933;31;20133;-72
2022/12/21 06:05:43;;;;;;;34.22;12.02;;;;;;;-0.36;100.00;99196.72;4483810;31;20553;-72
2022/12/21 06:08:10;;;;;;;30.17;11.88;;;;;;;-0.21;100.00;99186.75;4483603;31;20160;-72
2022/12/21 06:10:38;;;;;;;30.23;11.23;;;;;;;-0.34;100.00;99185.53;4476788;31;20131;-73
2022/12/21 06:13:06;;;;;;;28.12;9.52;;;;;;;-0.22;100.00;99187.63;4473994;32;20474;-73
2022/12/21 06:15:33;;;;;;;23.30;9.02;;;;;;;-0.33;100.00;99174.31;4476953;32;20100;-73
2022/12/21 06:18:02;;;;;;;30.23;10.95;;;;;;;-0.27;100.00;99186.97;4482097;31;20457;-73
2022/12/21 06:20:31;;;;;;;32.72;13.73;;;;;;;-0.27;100.00;99180.09;4480538;32;20084;-73
2022/12/21 06:22:58;;;;;;;40.67;14.02;;;;;;;-0.27;100.00;99186.97;4479944;31;20160;-73
2022/12/21 06:25:26;;;;;;;30.98;10.90;;;;;;;-0.32;100.00;99184.56;4478443;31;20096;-73
2022/12/21 06:27:53;;;;;;;30.15;12.50;;;;;;;-0.29;100.00;99199.06;4477857;32;20092;-73
2022/12/21 06:30:20;;;;;;;34.00;12.95;;;;;;;-0.17;100.00;99200.34;4482085;31;20093;-74
2022/12/21 06:32:47;;;;;;;25.40;11.10;;;;;;;-0.26;100.00;99193.78;4477317;32;20126;-73
2022/12/21 06:35:14;;;;;;;27.35;10.98;;;;;;;-0.08;100.00;99192.25;4481805;32;20459;-74
2022/12/21 06:37:41;;;;;;;33.95;11.95;;;;;;;-0.19;100.00;99187.53;4484691;31;20436;-73
2022/12/21 06:40:09;;;;;;;36.95;12.60;;;;;;;-0.24;100.00;99186.88;4484936;31;20113;-74
2022/12/21 06:42:36;;;;;;;35.45;11.52;;;;;;;-0.32;100.00;99184.56;4479880;31;20145;-74
2022/12/21 06:45:04;;;;;;;34.00;11.57;;;;;;;-0.25;100.00;99185.19;4471601;31;20112;-74
2022/12/21 06:47:31;;;;;;;33.17;12.88;;;;;;;-0.36;100.00;99165.84;4472659;32;20176;-75
2022/12/21 06:49:58;;;;;;;33.28;12.55;;;;;;;-0.23;100.00;99179.09;4473228;32;20495;-74
2022/12/21 06:52:25;;;;;;;40.17;12.55;;;;;;;-0.17;100.00;99170.25;4473361;31;20215;-74
2022/12/21 06:54:53;;;;;;;44.72;15.10;;;;;;;-0.20;100.00;99172.97;4474272;31;20599;-73
2022/12/21 06:57:20;;;;;;;25.90;9.70;;;;;;;-0.20;100.00;99168.66;4475314;32;20649;-75
2022/12/21 06:59:47;;;;;;;39.17;13.77;;;;;;;-0.22;100.00;99170.44;4473953;31;20088;-73
2022/12/21 07:02:14;;;;;;;31.67;12.55;;;;;;;-0.17;100.00;99172.84;4473887;32;20152;-73
2022/12/21 07:04:42;;;;;;;48.60;15.43;;;;;;;-0.08;100.00;99171.66;4475361;31;20157;-73
2022/12/21 07:07:09;;;;;;;34.63;13.02;;;;;;;-0.08;100.00;99167.31;4476939;32;20151;-73
2022/12/21 07:09:36;;;;;;;38.22;13.18;;;;;;;-0.02;100.00;99163.69;4481014;31;20580;-72
2022/12/21 07:12:03;;;;;;;32.13;11.73;;;;;;;-0.08;100.00;99167.31;4474568;32;20104;-74
2022/12/21 07:14:30;;;;;;;37.15;13.07;;;;;;;-0.09;100.00;99160.53;4481026;31;20092;-73
2022/12/21 07:16:58;;;;;;;35.25;12.30;;;;;;;0.00;100.00;99174.78;4483285;31;20097;-71
2022/12/21 07:19:26;;;;;;;28.77;12.65;;;;;;;-0.04;100.00;99166.31;4478210;32;20084;-72
2022/12/21 07:21:53;;;;;;;30.23;12.80;;;;;;;0.12;100.00;99184.59;4480230;32;20121;-73
2022/12/21 07:24:21;;;;;;;35.17;12.70;;;;;;;0.00;100.00;99169.63;4479341;32;20180;-73
2022/12/21 07:26:48;;;;;;;32.47;12.80;;;;;;;0.05;100.00;99172.84;4484615;31;20524;-73
2022/12/21 07:29:15;;;;;;;34.45;13.38;;;;;;;0.09;100.00;99163.25;4484241;31;20084;-72
2022/12/21 07:31:42;;;;;;;33.00;12.05;;;;;;;0.14;100.00;99174.22;4484290;32;20100;-73
2022/12/21 07:34:10;;;;;;;35.03;13.73;;;;;;;0.09;100.00;99166.69;4484569;31;20092;-73
2022/12/21 07:36:37;;;;;;;30.23;12.10;;;;;;;0.06;100.00;99168.53;4478892;31;20116;-73
2022/12/21 07:39:04;;;;;;;42.50;14.13;;;;;;;0.06;100.00;99174.53;4473679;32;20119;-73
2022/12/21 07:41:31;;;;;;;28.00;12.25;;;;;;;0.07;100.00;99173.62;4473608;31;20170;-73
2022/12/21 07:43:58;;;;;;;31.80;14.30;;;;;;;0.09;100.00;99164.09;4475957;32;20121;-73
2022/12/21 07:46:29;;;;;;;33.70;13.73;;;;;;;0.39;100.00;99165.50;4484868;32;20181;-72
2022/12/21 07:48:56;;;;;;;37.75;12.88;;;;;;;0.32;100.00;99164.91;4481922;32;20172;-72
2022/12/21 07:51:23;;;;;;;38.95;12.10;;;;;;;0.24;100.00;99151.50;4477139;32;20108;-72
2022/12/21 07:53:51;;;;;;;40.22;14.45;;;;;;;0.11;100.00;99152.00;4472164;32;20141;-73
2022/12/21 07:56:18;;;;;;;34.83;13.55;;;;;;;0.24;100.00;99162.63;4473475;31;20089;-72
2022/12/21 07:59:50;;;;;;;25.25;11.30;;;;;;;0.35;100.00;99167.38;4514770;31;87432;-72
2022/12/21 08:02:18;;;;;;;29.67;12.65;;;;;;;0.33;100.00;99162.28;4510701;31;20104;-72
2022/12/21 08:04:45;;;;;;;36.05;13.18;;;;;;;0.28;100.00;99166.75;4508784;31;20167;-72
2022/12/21 08:07:12;;;;;;;33.35;14.40;;;;;;;0.21;100.00;99167.06;4510139;31;20438;-73
2022/12/21 08:09:39;;;;;;;34.13;14.73;;;;;;;0.26;100.00;99172.88;4506272;31;20095;-73
2022/12/21 08:12:07;;;;;;;34.42;13.48;;;;;;;0.33;100.00;99169.16;4511211;31;20108;-73
2022/12/21 08:14:42;;;;;;;43.20;14.70;;;;;;;0.42;100.00;99171.34;4508586;31;20160;-73
2022/12/21 08:17:09;;;;;;;41.05;14.57;;;;;;;0.39;100.00;99155.19;4511596;31;20106;-73
2022/12/21 08:19:36;;;;;;;32.33;14.63;;;;;;;0.41;100.00;99164.53;4511348;31;20108;-73
2022/12/21 08:22:03;;;;;;;26.20;12.30;;;;;;;0.53;100.00;99163.19;4498902;31;20555;-73
2022/12/21 08:24:30;;;;;;;31.15;13.62;;;;;;;0.42;100.00;99160.22;4496131;31;20402;-73
2022/12/21 08:26:58;;;;;;;33.17;13.20;;;;;;;0.36;100.00;99156.13;4495241;31;20274;-74
2022/12/21 08:29:26;;;;;;;40.10;15.43;;;;;;;0.44;100.00;99164.41;4497334;31;20135;-73
2022/12/21 08:31:53;;;;;;;38.38;14.00;;;;;;;0.52;100.00;99167.50;4512031;31;20151;-72
2022/12/21 08:34:21;;;;;;;32.25;13.77;;;;;;;0.52;100.00;99162.34;4511476;31;20107;-72
2022/12/21 08:36:48;;;;;;;35.35;14.02;;;;;;;0.53;100.00;99161.44;4512382;31;20096;-73
2022/12/21 08:39:15;;;;;;;31.90;12.52;;;;;;;0.64;100.00;99155.84;4503364;31;20157;-74
2022/12/21 08:41:42;;;;;;;31.35;12.75;;;;;;;0.49;100.00;99167.63;4494370;31;20162;-74
2022/12/21 08:44:09;;;;;;;28.38;13.48;;;;;;;0.56;100.00;99152.75;4499238;31;20680;-73
2022/12/21 08:46:36;;;;;;;38.55;15.60;;;;;;;0.59;100.00;99157.78;4502008;31;20219;-71
2022/12/21 08:49:04;;;;;;;37.13;15.77;;;;;;;0.69;100.00;99160.78;4506730;31;20223;-72
2022/12/21 08:51:31;;;;;;;38.22;15.43;;;;;;;0.76;100.00;99144.16;4503821;31;20099;-73
2022/12/21 08:53:58;;;;;;;43.75;15.77;;;;;;;0.61;100.00;99155.13;4505807;31;20100;-71
2022/12/21 08:56:25;;;;;;;35.65;15.50;;;;;;;0.70;100.00;99149.59;4503191;31;20095;-71
2022/12/21 08:58:53;;;;;;;32.15;14.00;;;;;;;0.62;100.00;99146.47;4503932;31;20139;-71
2022/12/21 09:01:21;;;;;;;41.17;14.35;;;;;;;0.55;100.00;99148.50;4506800;31;20111;-70
2022/12/21 09:03:49;;;;;;;37.42;14.73;;;;;;;0.65;100.00;99152.38;4505350;31;20123;-71
2022/12/21 09:06:16;;;;;;;38.15;15.00;;;;;;;0.77;100.00;99157.88;4505596;31;20114;-71
2022/12/21 09:08:44;;;;;;;50.90;16.45;;;;;;;0.80;100.00;99161.19;4504323;31;20593;-71
2022/12/21 09:11:13;;;;;;;36.30;15.50;;;;;;;0.68;100.00;99157.38;4489905;31;20153;-71
2022/12/21 09:13:40;;;;;;;40.22;17.42;;;;;;;0.85;100.00;99154.06;4495053;31;20118;-71
2022/12/21 09:16:19;;;;;;;51.08;15.52;;;;;;;0.96;100.00;99165.69;4491882;31;20095;-71
2022/12/21 09:18:48;;;;;;;37.20;15.75;;;;;;;0.84;100.00;99162.72;4494149;31;20909;-72
2022/12/21 09:21:18;;;;;;;33.88;14.32;;;;;;;0.79;100.00;99162.09;4487934;31;20104;-72
2022/12/21 09:23:45;;;;;;;39.45;15.40;;;;;;;0.99;100.00;99142.31;4489792;31;20116;-72
2022/12/21 09:26:15;;;;;;;52.40;19.08;;;;;;;0.95;100.00;99138.19;4495906;31;20115;-72
2022/12/21 09:28:43;;;;;;;44.13;16.27;;;;;;;1.13;100.00;99132.22;4496904;31;20529;-72
2022/12/21 09:31:11;;;;;;;50.08;18.85;;;;;;;1.03;100.00;99134.38;4500965;31;20155;-73
2022/12/21 09:33:39;;;;;;;40.83;16.50;;;;;;;1.08;100.00;99123.84;4485951;31;20140;-72
2022/12/21 09:36:07;;;;;;;49.28;17.58;;;;;;;1.03;100.00;99120.62;4492988;31;20088;-72
2022/12/21 09:38:35;;;;;;;40.38;18.08;;;;;;;1.15;100.00;99124.41;4493942;31;20161;-72
2022/12/21 09:41:05;;;;;;;46.75;16.77;;;;;;;1.04;100.00;99117.97;4497026;31;20095;-72
2022/12/21 09:43:44;;;;;;;46.50;17.48;;;;;;;1.08;100.00;99125.63;4500558;31;20134;-72
2022/12/21 09:46:13;;;;;;;42.35;16.30;;;;;;;1.07;100.00;99111.84;4497042;31;20077;-72
2022/12/21 09:48:50;;;;;;;41.42;16.70;;;;;;;1.08;100.00;99110.97;4490944;31;20126;-72
2022/12/21 09:51:23;;;;;;;43.47;18.10;;;;;;;1.05;100.00;99111.91;4492673;31;20162;-72
2022/12/21 09:54:11;;;;;;;74.30;17.77;;;;;;;1.26;100.00;99111.00;4499777;31;20084;-74
2022/12/21 09:56:40;;;;;;;45.65;18.58;;;;;;;0.99;100.00;99113.94;4491275;31;20092;-72
2022/12/21 09:59:13;;;;;;;53.45;18.33;;;;;;;1.25;100.00;99110.19;4494208;31;20160;-72
2022/12/21 10:01:59;;;;;;;53.72;17.77;;;;;;;1.26;100.00;99113.59;4500156;31;20516;-75
2022/12/21 10:05:06;;;;;;;44.78;18.23;;;;;;;1.36;100.00;99104.53;4499353;31;20092;-74
2022/12/21 10:07:59;;;;;;;47.95;18.67;;;;;;;1.37;100.00;99101.87;4500054;31;20194;-73
2022/12/21 10:10:33;;;;;;;43.87;17.35;;;;;;;1.37;100.00;99106.22;4498514;31;20142;-72
2022/12/21 10:13:37;;;;;;;54.60;19.97;;;;;;;1.23;100.00;99114.59;4490012;31;20121;-72
2022/12/21 10:16:05;;;;;;;45.85;18.05;;;;;;;1.27;100.00;99104.97;4491898;31;20514;-72
2022/12/21 10:19:09;;;;;;;51.78;19.77;;;;;;;1.37;100.00;99107.03;4489702;31;20104;-71
2022/12/21 10:22:08;;;;;;;58.55;19.10;;;;;;;1.50;100.00;99109.91;4498842;31;20107;-73
2022/12/21 10:24:42;;;;;;;50.92;20.00;;;;;;;1.50;100.00;99109.91;4477537;31;20096;-73
2022/12/21 10:27:23;;;;;;;48.83;19.17;;;;;;;1.38;100.00;99100.16;4491597;31;20163;-73
2022/12/21 10:29:54;;;;;;;40.83;17.27;;;;;;;1.50;100.00;99098.72;4489950;31;20071;-73
2022/12/21 10:32:22;;;;;;;49.42;18.10;;;;;;;1.56;100.00;99093.28;4494415;31;20104;-73
2022/12/21 10:34:50;;;;;;;51.35;17.83;;;;;;;1.63;100.00;99083.50;4494462;31;20464;-74
2022/12/21 10:37:20;;;;;;;47.33;18.92;;;;;;;1.65;100.00;99079.09;4492780;31;20430;-73
2022/12/21 10:39:54;;;;;;;59.75;18.87;;;;;;;1.57;100.00;99074.28;4492216;31;20143;-73
2022/12/21 10:42:24;;;;;;;44.85;17.77;;;;;;;1.54;100.00;99069.28;4496327;31;20093;-74
2022/12/21 10:44:52;;;;;;;43.47;18.55;;;;;;;1.50;100.00;99068.59;4499683;31;20156;-73
2022/12/21 10:47:23;;;;;;;48.65;17.92;;;;;;;1.58;100.00;99066.47;4500211;31;20076;-72
2022/12/21 10:50:06;;;;;;;50.25;18.92;;;;;;;1.74;100.00;99063.16;4499073;31;20122;-71
2022/12/21 10:52:39;;;;;;;59.38;20.08;;;;;;;1.89;100.00;99062.44;4499139;31;20118;-71
2022/12/21 10:55:32;;;;;;;39.33;16.17;;;;;;;1.71;100.00;99051.25;4497718;31;20083;-72
2022/12/21 10:58:16;;;;;;;40.38;16.40;;;;;;;1.81;100.00;99056.78;4500465;31;20175;-71
2022/12/21 11:01:16;;;;;;;43.00;16.20;;;;;;;1.98;100.00;99050.78;4494727;31;20101;-71
2022/12/21 11:03:44;;;;;;;38.45;16.25;;;;;;;1.97;100.00;99051.72;4409448;32;21138;-71
2022/12/21 11:06:16;;;;;;;48.67;18.25;;;;;;;1.94;100.00;99049.28;4420617;32;20143;-73
2022/12/21 11:08:51;;;;;;;43.80;17.95;;;;;;;1.86;100.00;99044.50;4423428;32;20218;-72
2022/12/21 11:11:31;;;;;;;50.30;16.27;;;;;;;2.00;100.00;99037.78;4435313;32;20101;-72
2022/12/21 11:14:12;;;;;;;42.13;17.05;;;;;;;1.87;100.00;99035.00;4434997;32;20455;-71
2022/12/21 11:16:40;;;;;;;46.35;17.90;;;;;;;1.95;100.00;99038.88;4412181;32;20124;-73
2022/12/21 11:19:17;;;;;;;41.72;17.50;;;;;;;1.94;100.00;99052.69;4420159;32;20106;-72
2022/12/21 11:21:50;;;;;;;47.72;17.92;;;;;;;1.99;100.00;99036.12;4430076;32;20101;-72
2022/12/21 11:24:38;;;;;;;51.20;17.20;;;;;;;1.89;100.00;99043.50;4421297;32;20113;-73
2022/12/21 11:27:10;;;;;;;46.53;19.12;;;;;;;1.83;100.00;99031.72;4420133;32;20219;-72
2022/12/21 11:29:48;;;;;;;48.17;18.30;;;;;;;1.91;100.00;99036.53;4419275;32;20112;-72
2022/12/21 11:32:16;;;;;;;46.08;19.42;;;;;;;1.97;100.00;99032.78;4420516;32;20155;-72
2022/12/21 11:34:55;;;;;;;44.95;17.33;;;;;;;1.82;100.00;99032.63;4434234;32;20604;-72
2022/12/21 11:37:37;;;;;;;56.80;18.48;;;;;;;1.70;100.00;99043.56;4412017;32;20122;-72
2022/12/21 11:40:10;;;;;;;63.25;20.52;;;;;;;1.64;100.00;99031.78;4444376;31;20152;-71
2022/12/21 11:42:53;;;;;;;45.95;17.05;;;;;;;1.47;100.00;99022.28;4489259;31;20110;-71
2022/12/21 11:45:22;;;;;;;37.00;15.45;;;;;;;1.57;100.00;99026.06;4494238;31;20156;-72
2022/12/21 11:48:05;;;;;;;41.90;17.75;;;;;;;1.71;100.00;99021.97;4496050;31;20462;-71
2022/12/21 11:50:41;;;;;;;40.38;15.70;;;;;;;1.69;100.00;99024.63;4493653;31;20091;-72
2022/12/21 11:53:17;;;;;;;50.45;19.10;;;;;;;1.76;100.00;99013.09;4491091;31;20494;-72